Shannon, Ireland

10:56 AM IST on July 26, 2016 (GMT +0100)
Shannon | | Change Station

Elev 66 ft 52.70 °N, 8.92 °W | Updated 26 minutes ago

Mostly Cloudy
Mostly Cloudy
61 °F
Feels Like 61 °F
N
8
Wind Variable Wind from SSW

Today
High -- | Low -- °F
--% Chance of Precip.
Yesterday
High -- | Low -- °F
Precip. -- in
Pressure 30.09 in
Visibility 6.2 miles
Clouds Few 500 ft
Mostly Cloudy 1100 ft
Mostly Cloudy 2500 ft
Dew Point 59 °F
Humidity 94%
Rainfall 0.00 in
Snow Depth Not available.
5:45 AM 9:37 PM
Waning Gibbous, 56% visible
METAR EINN 260930Z 20007KT 9999 FEW005 BKN011 BKN025 16/15 Q1019 TEMPO 3000 BKN004
Pressure 30.09 in
Visibility 6.2 miles
Clouds Few 500 ft
Mostly Cloudy 1100 ft
Mostly Cloudy 2500 ft
Dew Point 59 °F
Humidity 94%
Rainfall 0.00 in
Snow Depth Not available.
5:45 AM 9:37 PM
Waning Gibbous, 56% visible
METAR EINN 260930Z 20007KT 9999 FEW005 BKN011 BKN025 16/15 Q1019 TEMPO 3000 BKN004

10-Day Weather Forecast

×

Almanac

Astronomy

Jul. 26, 2016 Rise Set
Actual Time
Civil Twilight
Nautical Twilight
Astronomical Twilight
Moon
Length of Visible Light
Length of Day
Tomorrow will be .
, % of the Moon is Illuminated

Today's Extremes

Country Highs Country Lows

Community

WunderPhotos

Upload Photos

1,927,557 photos uploaded!

WunderBlog® & News

Nearby

Air Quality

  Air Quality AQ Index Pollutant
Not available.

Snow Depth

Station Depth Elevation

Earthquake Activity

City Distance Mag. Time & Date
Minimum magnitude displayed is 2.5.

Coastal Water Temperatures

Place Temperature

Stations

Nearby Weather Stations

Station Location Temp. Windchill Dew Point Humidity Wind Precip. Elev Updated Type